Pointe Noire, Canada
Current Conditions -  °F | °C
As of 4:00 PM on Thursday 27 Nov 2014 (Local Time) from CYZV Reporting Station
Overcast Overcast  
Wind Chill:   Ceiling: 14000
Heat Index: 18°   Visibility: 30mi
Dew Point:   Wind: 9mph
Humidity: 49%   Direction: 350°N
Pressure: 29.95"   Gusts: NA
Location:  50.15°N, 66.43°W
Report Text: CYZV 272100Z 35008KT 30SM FEW050 OVC140 M08/M17 A2995 RMK SC1AS7 SLP146
Loading
Personal Weather Stations






























Interactive Weather Map New forecast layout! Learn more

10-Day Weather Forecast

Advertisements
Track Severe Weather on mobile